sensor_id;sensor_type;location;lat;lon;timestamp;temperature;humidity
11647;DHT22;5880;52.342;9.662;2023-07-24T00:02:05;22.30;64.30
11647;DHT22;5880;52.342;9.662;2023-07-24T00:04:31;22.40;64.40
11647;DHT22;5880;52.342;9.662;2023-07-24T00:06:58;22.30;64.40
11647;DHT22;5880;52.342;9.662;2023-07-24T00:09:24;22.30;64.40
11647;DHT22;5880;52.342;9.662;2023-07-24T00:11:50;22.30;64.40
11647;DHT22;5880;52.342;9.662;2023-07-24T00:14:16;22.30;64.50
11647;DHT22;5880;52.342;9.662;2023-07-24T00:16:42;22.30;64.50
11647;DHT22;5880;52.342;9.662;2023-07-24T00:19:07;22.30;64.50
11647;DHT22;5880;52.342;9.662;2023-07-24T00:21:33;22.50;64.50
11647;DHT22;5880;52.342;9.662;2023-07-24T00:23:59;22.30;64.50
11647;DHT22;5880;52.342;9.662;2023-07-24T00:26:25;22.30;64.50
11647;DHT22;5880;52.342;9.662;2023-07-24T00:28:50;22.20;64.40
11647;DHT22;5880;52.342;9.662;2023-07-24T00:31:16;22.20;64.40
11647;DHT22;5880;52.342;9.662;2023-07-24T00:33:42;22.20;64.50
11647;DHT22;5880;52.342;9.662;2023-07-24T00:36:07;22.20;64.50
11647;DHT22;5880;52.342;9.662;2023-07-24T00:38:33;22.20;64.50
11647;DHT22;5880;52.342;9.662;2023-07-24T00:40:59;22.20;64.40
11647;DHT22;5880;52.342;9.662;2023-07-24T00:43:24;22.80;64.70
11647;DHT22;5880;52.342;9.662;2023-07-24T00:45:50;22.20;64.50
11647;DHT22;5880;52.342;9.662;2023-07-24T00:48:16;22.20;64.60
11647;DHT22;5880;52.342;9.662;2023-07-24T00:50:43;22.10;64.70
11647;DHT22;5880;52.342;9.662;2023-07-24T00:53:11;22.20;64.80
11647;DHT22;5880;52.342;9.662;2023-07-24T00:55:39;22.20;64.90
11647;DHT22;5880;52.342;9.662;2023-07-24T00:58:06;22.20;64.90
11647;DHT22;5880;52.342;9.662;2023-07-24T01:00:32;22.20;64.90
11647;DHT22;5880;52.342;9.662;2023-07-24T01:02:59;22.20;65.00
11647;DHT22;5880;52.342;9.662;2023-07-24T01:05:26;22.30;65.10
11647;DHT22;5880;52.342;9.662;2023-07-24T01:07:52;22.20;65.00
11647;DHT22;5880;52.342;9.662;2023-07-24T01:10:18;22.30;65.00
11647;DHT22;5880;52.342;9.662;2023-07-24T01:13:10;22.20;64.90
11647;DHT22;5880;52.342;9.662;2023-07-24T01:15:45;22.20;65.70
11647;DHT22;5880;52.342;9.662;2023-07-24T01:18:17;22.20;65.10
11647;DHT22;5880;52.342;9.662;2023-07-24T01:20:49;22.30;65.20
11647;DHT22;5880;52.342;9.662;2023-07-24T01:26:46;22.20;65.90
11647;DHT22;5880;52.342;9.662;2023-07-24T01:29:12;22.30;64.90
11647;DHT22;5880;52.342;9.662;2023-07-24T01:31:38;22.30;65.00
11647;DHT22;5880;52.342;9.662;2023-07-24T01:34:03;22.30;65.00
11647;DHT22;5880;52.342;9.662;2023-07-24T01:36:29;22.20;64.90
11647;DHT22;5880;52.342;9.662;2023-07-24T01:38:55;22.30;65.00
11647;DHT22;5880;52.342;9.662;2023-07-24T01:41:22;22.30;65.00
11647;DHT22;5880;52.342;9.662;2023-07-24T01:43:48;22.20;64.90
11647;DHT22;5880;52.342;9.662;2023-07-24T01:46:14;22.30;65.00
11647;DHT22;5880;52.342;9.662;2023-07-24T01:48:40;22.30;65.00
11647;DHT22;5880;52.342;9.662;2023-07-24T01:51:05;22.20;64.90
11647;DHT22;5880;52.342;9.662;2023-07-24T01:53:31;22.20;64.90
11647;DHT22;5880;52.342;9.662;2023-07-24T01:55:58;22.20;65.00
11647;DHT22;5880;52.342;9.662;2023-07-24T01:58:24;22.20;65.20
11647;DHT22;5880;52.342;9.662;2023-07-24T02:00:49;22.20;65.10
11647;DHT22;5880;52.342;9.662;2023-07-24T02:03:15;22.10;65.20
11647;DHT22;5880;52.342;9.662;2023-07-24T02:05:41;22.30;65.40
11647;DHT22;5880;52.342;9.662;2023-07-24T02:08:06;22.10;65.30
11647;DHT22;5880;52.342;9.662;2023-07-24T02:10:32;22.10;65.30
11647;DHT22;5880;52.342;9.662;2023-07-24T02:12:57;22.10;65.30
11647;DHT22;5880;52.342;9.662;2023-07-24T02:15:23;22.20;65.20
11647;DHT22;5880;52.342;9.662;2023-07-24T02:17:49;22.20;65.20
11647;DHT22;5880;52.342;9.662;2023-07-24T02:20:14;22.10;65.20
11647;DHT22;5880;52.342;9.662;2023-07-24T02:22:40;22.10;65.20
11647;DHT22;5880;52.342;9.662;2023-07-24T02:25:06;22.20;65.20
11647;DHT22;5880;52.342;9.662;2023-07-24T02:27:32;22.20;65.20
11647;DHT22;5880;52.342;9.662;2023-07-24T02:30:00;22.20;65.10
11647;DHT22;5880;52.342;9.662;2023-07-24T02:32:26;22.20;65.10
11647;DHT22;5880;52.342;9.662;2023-07-24T02:34:52;22.20;65.00
11647;DHT22;5880;52.342;9.662;2023-07-24T02:37:19;22.10;65.10
11647;DHT22;5880;52.342;9.662;2023-07-24T02:39:45;22.10;65.10
11647;DHT22;5880;52.342;9.662;2023-07-24T02:42:11;22.10;65.10
11647;DHT22;5880;52.342;9.662;2023-07-24T02:44:37;22.10;65.10
11647;DHT22;5880;52.342;9.662;2023-07-24T02:47:03;22.10;65.20
11647;DHT22;5880;52.342;9.662;2023-07-24T02:49:29;22.00;65.20
11647;DHT22;5880;52.342;9.662;2023-07-24T02:51:55;22.00;65.20
11647;DHT22;5880;52.342;9.662;2023-07-24T02:54:20;22.00;65.30
11647;DHT22;5880;52.342;9.662;2023-07-24T02:56:46;21.90;65.30
11647;DHT22;5880;52.342;9.662;2023-07-24T02:59:12;22.00;65.20
11647;DHT22;5880;52.342;9.662;2023-07-24T03:01:37;22.20;65.40
11647;DHT22;5880;52.342;9.662;2023-07-24T03:04:03;22.50;65.60
11647;DHT22;5880;52.342;9.662;2023-07-24T03:06:31;22.00;65.20
11647;DHT22;5880;52.342;9.662;2023-07-24T03:08:57;22.00;65.30
11647;DHT22;5880;52.342;9.662;2023-07-24T03:11:23;22.00;65.40
11647;DHT22;5880;52.342;9.662;2023-07-24T03:13:48;22.00;65.40
11647;DHT22;5880;52.342;9.662;2023-07-24T03:16:14;22.00;65.40
11647;DHT22;5880;52.342;9.662;2023-07-24T03:18:40;21.90;65.40
11647;DHT22;5880;52.342;9.662;2023-07-24T03:21:05;21.90;65.40
11647;DHT22;5880;52.342;9.662;2023-07-24T03:23:31;21.90;65.40
11647;DHT22;5880;52.342;9.662;2023-07-24T03:25:56;21.80;65.30
11647;DHT22;5880;52.342;9.662;2023-07-24T03:28:22;21.90;65.50
11647;DHT22;5880;52.342;9.662;2023-07-24T03:30:48;21.80;65.40
11647;DHT22;5880;52.342;9.662;2023-07-24T03:33:13;22.00;65.50
11647;DHT22;5880;52.342;9.662;2023-07-24T03:35:39;21.90;65.60
11647;DHT22;5880;52.342;9.662;2023-07-24T03:38:05;21.90;65.50
11647;DHT22;5880;52.342;9.662;2023-07-24T03:40:31;21.90;65.60
11647;DHT22;5880;52.342;9.662;2023-07-24T03:42:57;21.90;65.50
11647;DHT22;5880;52.342;9.662;2023-07-24T03:45:23;21.90;65.50
11647;DHT22;5880;52.342;9.662;2023-07-24T03:47:51;21.90;65.50
11647;DHT22;5880;52.342;9.662;2023-07-24T03:50:17;22.00;65.50
11647;DHT22;5880;52.342;9.662;2023-07-24T03:52:43;21.40;65.10
11647;DHT22;5880;52.342;9.662;2023-07-24T03:55:08;21.90;65.40
11647;DHT22;5880;52.342;9.662;2023-07-24T03:57:35;21.90;65.40
11647;DHT22;5880;52.342;9.662;2023-07-24T04:00:02;21.90;65.50
11647;DHT22;5880;52.342;9.662;2023-07-24T04:02:28;21.90;65.50
11647;DHT22;5880;52.342;9.662;2023-07-24T04:04:54;21.90;65.40
11647;DHT22;5880;52.342;9.662;2023-07-24T04:07:20;22.20;65.70
11647;DHT22;5880;52.342;9.662;2023-07-24T04:09:45;21.90;65.50
11647;DHT22;5880;52.342;9.662;2023-07-24T04:12:11;22.00;65.50
11647;DHT22;5880;52.342;9.662;2023-07-24T04:14:37;21.90;65.50
11647;DHT22;5880;52.342;9.662;2023-07-24T04:17:03;21.90;65.60
11647;DHT22;5880;52.342;9.662;2023-07-24T04:19:28;21.90;65.60
11647;DHT22;5880;52.342;9.662;2023-07-24T04:21:54;21.90;65.70
11647;DHT22;5880;52.342;9.662;2023-07-24T04:24:20;22.10;65.80
11647;DHT22;5880;52.342;9.662;2023-07-24T04:26:46;22.30;65.90
11647;DHT22;5880;52.342;9.662;2023-07-24T04:29:11;22.00;65.70
11647;DHT22;5880;52.342;9.662;2023-07-24T04:31:37;22.00;65.80
11647;DHT22;5880;52.342;9.662;2023-07-24T04:34:03;22.00;65.80
11647;DHT22;5880;52.342;9.662;2023-07-24T04:36:28;22.10;65.80
11647;DHT22;5880;52.342;9.662;2023-07-24T04:38:54;22.40;65.90
11647;DHT22;5880;52.342;9.662;2023-07-24T04:41:20;22.10;65.80
11647;DHT22;5880;52.342;9.662;2023-07-24T04:43:45;22.10;65.80
11647;DHT22;5880;52.342;9.662;2023-07-24T04:46:11;22.20;65.70
11647;DHT22;5880;52.342;9.662;2023-07-24T04:48:37;22.20;65.70
11647;DHT22;5880;52.342;9.662;2023-07-24T04:51:02;22.20;65.80
11647;DHT22;5880;52.342;9.662;2023-07-24T04:53:28;22.30;65.90
11647;DHT22;5880;52.342;9.662;2023-07-24T04:55:54;22.20;65.80
11647;DHT22;5880;52.342;9.662;2023-07-24T04:58:19;22.30;65.90
11647;DHT22;5880;52.342;9.662;2023-07-24T05:00:45;22.40;65.90
11647;DHT22;5880;52.342;9.662;2023-07-24T05:03:11;22.40;65.80
11647;DHT22;5880;52.342;9.662;2023-07-24T05:05:37;22.40;65.80
11647;DHT22;5880;52.342;9.662;2023-07-24T05:08:04;22.50;66.00
11647;DHT22;5880;52.342;9.662;2023-07-24T05:10:29;22.50;66.40
11647;DHT22;5880;52.342;9.662;2023-07-24T05:13:00;22.50;66.30
11647;DHT22;5880;52.342;9.662;2023-07-24T05:15:26;22.80;66.50
11647;DHT22;5880;52.342;9.662;2023-07-24T05:17:52;22.70;66.40
11647;DHT22;5880;52.342;9.662;2023-07-24T05:20:17;22.90;66.80
11647;DHT22;5880;52.342;9.662;2023-07-24T05:22:43;23.00;66.50
11647;DHT22;5880;52.342;9.662;2023-07-24T05:25:09;23.10;66.50
11647;DHT22;5880;52.342;9.662;2023-07-24T05:27:35;23.20;66.30
11647;DHT22;5880;52.342;9.662;2023-07-24T05:30:01;23.40;65.90
11647;DHT22;5880;52.342;9.662;2023-07-24T05:32:27;23.40;65.20
11647;DHT22;5880;52.342;9.662;2023-07-24T05:34:53;23.40;64.70
11647;DHT22;5880;52.342;9.662;2023-07-24T05:37:18;23.50;64.40
11647;DHT22;5880;52.342;9.662;2023-07-24T05:39:44;23.50;64.10
11647;DHT22;5880;52.342;9.662;2023-07-24T05:42:10;23.50;63.80
11647;DHT22;5880;52.342;9.662;2023-07-24T05:44:36;23.40;63.70
11647;DHT22;5880;52.342;9.662;2023-07-24T05:47:02;23.40;63.60
11647;DHT22;5880;52.342;9.662;2023-07-24T05:49:28;23.30;63.60
11647;DHT22;5880;52.342;9.662;2023-07-24T05:51:54;23.30;63.80
11647;DHT22;5880;52.342;9.662;2023-07-24T05:54:20;23.30;63.80
11647;DHT22;5880;52.342;9.662;2023-07-24T05:56:46;23.20;63.80
11647;DHT22;5880;52.342;9.662;2023-07-24T05:59:11;23.20;63.90
11647;DHT22;5880;52.342;9.662;2023-07-24T06:01:37;23.10;64.10
11647;DHT22;5880;52.342;9.662;2023-07-24T06:04:03;23.00;64.10
11647;DHT22;5880;52.342;9.662;2023-07-24T06:06:28;23.00;64.30
11647;DHT22;5880;52.342;9.662;2023-07-24T06:08:54;23.00;64.60
11647;DHT22;5880;52.342;9.662;2023-07-24T06:11:20;22.90;64.80
11647;DHT22;5880;52.342;9.662;2023-07-24T06:13:45;23.20;65.10
11647;DHT22;5880;52.342;9.662;2023-07-24T06:16:11;22.90;65.10
11647;DHT22;5880;52.342;9.662;2023-07-24T06:18:39;22.90;65.30
11647;DHT22;5880;52.342;9.662;2023-07-24T06:21:04;22.80;65.40
11647;DHT22;5880;52.342;9.662;2023-07-24T06:23:30;22.90;65.70
11647;DHT22;5880;52.342;9.662;2023-07-24T06:25:56;22.90;65.70
11647;DHT22;5880;52.342;9.662;2023-07-24T06:28:21;22.80;65.60
11647;DHT22;5880;52.342;9.662;2023-07-24T06:30:47;22.80;65.60
11647;DHT22;5880;52.342;9.662;2023-07-24T06:33:13;22.90;65.80
11647;DHT22;5880;52.342;9.662;2023-07-24T06:35:38;22.80;65.70
11647;DHT22;5880;52.342;9.662;2023-07-24T06:38:04;22.80;65.70
11647;DHT22;5880;52.342;9.662;2023-07-24T06:40:30;22.90;65.80
11647;DHT22;5880;52.342;9.662;2023-07-24T06:42:55;22.80;65.60
11647;DHT22;5880;52.342;9.662;2023-07-24T06:45:21;22.80;65.50
11647;DHT22;5880;52.342;9.662;2023-07-24T06:47:46;22.80;65.50
11647;DHT22;5880;52.342;9.662;2023-07-24T06:50:12;22.80;65.50
11647;DHT22;5880;52.342;9.662;2023-07-24T06:52:38;22.70;65.50
11647;DHT22;5880;52.342;9.662;2023-07-24T06:55:04;22.70;65.50
11647;DHT22;5880;52.342;9.662;2023-07-24T06:57:30;22.70;65.50
11647;DHT22;5880;52.342;9.662;2023-07-24T06:59:56;22.70;65.60
11647;DHT22;5880;52.342;9.662;2023-07-24T07:02:21;22.80;65.60
11647;DHT22;5880;52.342;9.662;2023-07-24T07:04:47;22.70;65.70
11647;DHT22;5880;52.342;9.662;2023-07-24T07:07:13;22.70;65.70
11647;DHT22;5880;52.342;9.662;2023-07-24T07:09:38;22.70;65.80
11647;DHT22;5880;52.342;9.662;2023-07-24T07:12:04;22.70;65.90
11647;DHT22;5880;52.342;9.662;2023-07-24T07:14:30;22.70;65.80
11647;DHT22;5880;52.342;9.662;2023-07-24T07:16:56;22.80;65.80
11647;DHT22;5880;52.342;9.662;2023-07-24T07:19:22;22.80;65.80
11647;DHT22;5880;52.342;9.662;2023-07-24T07:21:47;22.70;65.90
11647;DHT22;5880;52.342;9.662;2023-07-24T07:24:13;22.70;65.90
11647;DHT22;5880;52.342;9.662;2023-07-24T07:26:38;22.70;66.00
11647;DHT22;5880;52.342;9.662;2023-07-24T07:29:04;22.70;66.20
11647;DHT22;5880;52.342;9.662;2023-07-24T07:31:30;22.70;66.40
11647;DHT22;5880;52.342;9.662;2023-07-24T07:33:55;22.70;66.40
11647;DHT22;5880;52.342;9.662;2023-07-24T07:36:21;22.60;66.30
11647;DHT22;5880;52.342;9.662;2023-07-24T07:38:48;22.60;66.50
11647;DHT22;5880;52.342;9.662;2023-07-24T07:41:14;22.70;66.70
11647;DHT22;5880;52.342;9.662;2023-07-24T07:43:40;22.50;66.70
11647;DHT22;5880;52.342;9.662;2023-07-24T07:46:05;22.50;66.80
11647;DHT22;5880;52.342;9.662;2023-07-24T07:48:31;22.40;66.90
11647;DHT22;5880;52.342;9.662;2023-07-24T07:50:58;22.40;67.00
11647;DHT22;5880;52.342;9.662;2023-07-24T07:53:23;22.30;67.10
11647;DHT22;5880;52.342;9.662;2023-07-24T07:55:59;22.20;67.10
11647;DHT22;5880;52.342;9.662;2023-07-24T07:58:25;22.20;68.50
11647;DHT22;5880;52.342;9.662;2023-07-24T08:00:51;22.10;67.50
11647;DHT22;5880;52.342;9.662;2023-07-24T08:03:16;22.20;67.60
11647;DHT22;5880;52.342;9.662;2023-07-24T08:05:42;22.10;68.00
11647;DHT22;5880;52.342;9.662;2023-07-24T08:08:08;22.00;68.10
11647;DHT22;5880;52.342;9.662;2023-07-24T08:10:37;22.00;68.40
11647;DHT22;5880;52.342;9.662;2023-07-24T08:13:03;22.00;69.00
11647;DHT22;5880;52.342;9.662;2023-07-24T08:15:33;22.00;68.80
11647;DHT22;5880;52.342;9.662;2023-07-24T08:17:59;22.00;69.40
11647;DHT22;5880;52.342;9.662;2023-07-24T08:20:25;22.10;70.00
11647;DHT22;5880;52.342;9.662;2023-07-24T08:22:50;22.10;70.20
11647;DHT22;5880;52.342;9.662;2023-07-24T08:25:16;22.20;70.30
11647;DHT22;5880;52.342;9.662;2023-07-24T08:27:43;22.20;70.30
11647;DHT22;5880;52.342;9.662;2023-07-24T08:30:08;22.30;70.30
11647;DHT22;5880;52.342;9.662;2023-07-24T08:32:34;22.30;70.00
11647;DHT22;5880;52.342;9.662;2023-07-24T08:35:00;22.40;69.80
11647;DHT22;5880;52.342;9.662;2023-07-24T08:37:26;22.40;69.70
11647;DHT22;5880;52.342;9.662;2023-07-24T08:39:52;22.40;69.70
11647;DHT22;5880;52.342;9.662;2023-07-24T08:42:17;22.50;69.90
11647;DHT22;5880;52.342;9.662;2023-07-24T08:44:45;22.50;70.20
11647;DHT22;5880;52.342;9.662;2023-07-24T08:47:11;22.60;70.70
11647;DHT22;5880;52.342;9.662;2023-07-24T08:49:39;22.50;71.10
11647;DHT22;5880;52.342;9.662;2023-07-24T08:52:06;22.60;71.40
11647;DHT22;5880;52.342;9.662;2023-07-24T08:54:32;22.70;71.70
11647;DHT22;5880;52.342;9.662;2023-07-24T08:57:02;22.80;71.60
11647;DHT22;5880;52.342;9.662;2023-07-24T08:59:29;22.90;71.60
11647;DHT22;5880;52.342;9.662;2023-07-24T09:01:55;23.10;71.40
11647;DHT22;5880;52.342;9.662;2023-07-24T09:04:21;23.10;71.00
11647;DHT22;5880;52.342;9.662;2023-07-24T09:06:47;23.10;70.70
11647;DHT22;5880;52.342;9.662;2023-07-24T09:09:15;23.30;70.60
11647;DHT22;5880;52.342;9.662;2023-07-24T09:11:53;23.20;70.20
11647;DHT22;5880;52.342;9.662;2023-07-24T09:14:27;23.20;70.90
11647;DHT22;5880;52.342;9.662;2023-07-24T09:19:29;23.30;70.90
11647;DHT22;5880;52.342;9.662;2023-07-24T09:21:55;23.30;70.60
11647;DHT22;5880;52.342;9.662;2023-07-24T09:24:20;23.40;70.80
11647;DHT22;5880;52.342;9.662;2023-07-24T09:26:50;23.40;70.90
11647;DHT22;5880;52.342;9.662;2023-07-24T09:29:18;23.50;70.70
11647;DHT22;5880;52.342;9.662;2023-07-24T09:31:44;23.50;70.50
11647;DHT22;5880;52.342;9.662;2023-07-24T09:34:17;23.60;70.60
11647;DHT22;5880;52.342;9.662;2023-07-24T09:36:44;23.60;71.20
11647;DHT22;5880;52.342;9.662;2023-07-24T09:39:11;23.70;70.90
11647;DHT22;5880;52.342;9.662;2023-07-24T09:41:40;23.80;70.90
11647;DHT22;5880;52.342;9.662;2023-07-24T09:44:07;23.80;71.20
11647;DHT22;5880;52.342;9.662;2023-07-24T09:46:33;23.90;71.30
11647;DHT22;5880;52.342;9.662;2023-07-24T09:48:59;23.90;71.20
11647;DHT22;5880;52.342;9.662;2023-07-24T09:51:25;24.10;71.30
11647;DHT22;5880;52.342;9.662;2023-07-24T09:53:58;24.10;71.40
11647;DHT22;5880;52.342;9.662;2023-07-24T09:56:32;24.20;71.20
11647;DHT22;5880;52.342;9.662;2023-07-24T09:58:59;24.30;70.50
11647;DHT22;5880;52.342;9.662;2023-07-24T10:01:28;24.40;70.50
11647;DHT22;5880;52.342;9.662;2023-07-24T10:03:57;24.40;70.50
11647;DHT22;5880;52.342;9.662;2023-07-24T10:06:24;24.50;70.90
11647;DHT22;5880;52.342;9.662;2023-07-24T10:08:52;24.60;71.00
11647;DHT22;5880;52.342;9.662;2023-07-24T10:11:19;24.70;71.00
11647;DHT22;5880;52.342;9.662;2023-07-24T10:13:46;24.80;70.40
11647;DHT22;5880;52.342;9.662;2023-07-24T10:16:13;24.90;70.40
11647;DHT22;5880;52.342;9.662;2023-07-24T10:18:44;24.90;69.80
11647;DHT22;5880;52.342;9.662;2023-07-24T10:21:11;25.00;69.00
11647;DHT22;5880;52.342;9.662;2023-07-24T10:23:44;25.10;68.60
11647;DHT22;5880;52.342;9.662;2023-07-24T10:26:14;25.10;67.90
11647;DHT22;5880;52.342;9.662;2023-07-24T10:28:41;25.20;68.20
11647;DHT22;5880;52.342;9.662;2023-07-24T10:31:18;25.20;67.40
11647;DHT22;5880;52.342;9.662;2023-07-24T10:33:46;25.20;67.60
11647;DHT22;5880;52.342;9.662;2023-07-24T10:36:12;25.20;66.80
11647;DHT22;5880;52.342;9.662;2023-07-24T10:38:42;25.30;66.40
11647;DHT22;5880;52.342;9.662;2023-07-24T10:41:10;25.30;66.60
11647;DHT22;5880;52.342;9.662;2023-07-24T10:43:52;25.30;66.40
11647;DHT22;5880;52.342;9.662;2023-07-24T10:46:36;25.30;67.10
11647;DHT22;5880;52.342;9.662;2023-07-24T10:49:03;25.40;65.50
11647;DHT22;5880;52.342;9.662;2023-07-24T10:51:29;25.40;66.70
11647;DHT22;5880;52.342;9.662;2023-07-24T10:53:59;25.50;66.20
11647;DHT22;5880;52.342;9.662;2023-07-24T10:56:25;25.50;66.10
11647;DHT22;5880;52.342;9.662;2023-07-24T10:58:51;25.60;66.10
11647;DHT22;5880;52.342;9.662;2023-07-24T11:01:17;25.70;66.00
11647;DHT22;5880;52.342;9.662;2023-07-24T11:03:44;25.80;65.90
11647;DHT22;5880;52.342;9.662;2023-07-24T11:06:15;25.80;65.60
11647;DHT22;5880;52.342;9.662;2023-07-24T11:08:54;25.90;64.40
11647;DHT22;5880;52.342;9.662;2023-07-24T11:11:31;25.90;64.00
11647;DHT22;5880;52.342;9.662;2023-07-24T11:14:00;26.00;64.00
11647;DHT22;5880;52.342;9.662;2023-07-24T11:16:27;26.10;64.90
11647;DHT22;5880;52.342;9.662;2023-07-24T11:18:53;26.00;64.60
11647;DHT22;5880;52.342;9.662;2023-07-24T11:21:19;26.20;64.10
11647;DHT22;5880;52.342;9.662;2023-07-24T11:23:49;26.10;64.70
11647;DHT22;5880;52.342;9.662;2023-07-24T11:26:19;26.10;63.50
11647;DHT22;5880;52.342;9.662;2023-07-24T11:28:46;26.10;63.60
11647;DHT22;5880;52.342;9.662;2023-07-24T11:31:12;26.20;63.70
11647;DHT22;5880;52.342;9.662;2023-07-24T11:33:39;26.20;64.10
11647;DHT22;5880;52.342;9.662;2023-07-24T11:36:05;26.20;63.50
11647;DHT22;5880;52.342;9.662;2023-07-24T11:38:31;26.20;63.10
11647;DHT22;5880;52.342;9.662;2023-07-24T11:40:57;26.20;62.80
11647;DHT22;5880;52.342;9.662;2023-07-24T11:43:23;26.20;62.90
11647;DHT22;5880;52.342;9.662;2023-07-24T11:45:51;26.20;62.60
11647;DHT22;5880;52.342;9.662;2023-07-24T11:48:19;26.10;63.10
11647;DHT22;5880;52.342;9.662;2023-07-24T11:50:48;26.10;63.50
11647;DHT22;5880;52.342;9.662;2023-07-24T11:53:29;26.00;63.70
11647;DHT22;5880;52.342;9.662;2023-07-24T11:55:58;26.00;64.10
11647;DHT22;5880;52.342;9.662;2023-07-24T11:58:29;26.00;64.20
11647;DHT22;5880;52.342;9.662;2023-07-24T12:00:55;26.00;63.30
11647;DHT22;5880;52.342;9.662;2023-07-24T12:03:26;26.00;63.60
11647;DHT22;5880;52.342;9.662;2023-07-24T12:05:53;26.00;62.20
11647;DHT22;5880;52.342;9.662;2023-07-24T12:08:23;26.00;62.80
11647;DHT22;5880;52.342;9.662;2023-07-24T12:11:01;26.00;62.90
11647;DHT22;5880;52.342;9.662;2023-07-24T12:13:27;26.00;62.80
11647;DHT22;5880;52.342;9.662;2023-07-24T12:15:54;25.90;62.40
11647;DHT22;5880;52.342;9.662;2023-07-24T12:18:20;25.80;62.30
11647;DHT22;5880;52.342;9.662;2023-07-24T12:20:46;25.70;62.50
11647;DHT22;5880;52.342;9.662;2023-07-24T12:23:12;25.60;62.70
11647;DHT22;5880;52.342;9.662;2023-07-24T12:25:38;25.50;62.80
11647;DHT22;5880;52.342;9.662;2023-07-24T12:28:04;25.50;62.60
11647;DHT22;5880;52.342;9.662;2023-07-24T12:30:29;25.30;63.00
11647;DHT22;5880;52.342;9.662;2023-07-24T12:32:55;25.20;63.10
11647;DHT22;5880;52.342;9.662;2023-07-24T12:35:20;25.10;63.20
11647;DHT22;5880;52.342;9.662;2023-07-24T12:37:46;25.00;63.50
11647;DHT22;5880;52.342;9.662;2023-07-24T12:40:12;24.90;63.70
11647;DHT22;5880;52.342;9.662;2023-07-24T12:42:38;24.80;64.10
11647;DHT22;5880;52.342;9.662;2023-07-24T12:45:05;24.60;64.20
11647;DHT22;5880;52.342;9.662;2023-07-24T12:47:33;24.60;64.30
11647;DHT22;5880;52.342;9.662;2023-07-24T12:49:59;24.50;64.80
11647;DHT22;5880;52.342;9.662;2023-07-24T12:52:26;24.40;64.70
11647;DHT22;5880;52.342;9.662;2023-07-24T12:54:52;24.40;65.20
11647;DHT22;5880;52.342;9.662;2023-07-24T12:57:18;24.30;65.40
11647;DHT22;5880;52.342;9.662;2023-07-24T12:59:44;24.30;66.10
11647;DHT22;5880;52.342;9.662;2023-07-24T13:02:10;24.20;66.10
11647;DHT22;5880;52.342;9.662;2023-07-24T13:04:35;24.20;66.30
11647;DHT22;5880;52.342;9.662;2023-07-24T13:07:01;24.20;66.50
11647;DHT22;5880;52.342;9.662;2023-07-24T13:09:27;24.30;66.90
11647;DHT22;5880;52.342;9.662;2023-07-24T13:11:53;24.30;67.10
11647;DHT22;5880;52.342;9.662;2023-07-24T13:14:20;24.30;67.20
11647;DHT22;5880;52.342;9.662;2023-07-24T13:16:46;24.40;67.20
11647;DHT22;5880;52.342;9.662;2023-07-24T13:19:12;24.40;67.00
11647;DHT22;5880;52.342;9.662;2023-07-24T13:21:38;24.50;66.90
11647;DHT22;5880;52.342;9.662;2023-07-24T13:24:05;24.50;67.00
11647;DHT22;5880;52.342;9.662;2023-07-24T13:26:32;24.60;67.10
11647;DHT22;5880;52.342;9.662;2023-07-24T13:28:58;24.60;67.40
11647;DHT22;5880;52.342;9.662;2023-07-24T13:31:24;24.60;67.60
11647;DHT22;5880;52.342;9.662;2023-07-24T13:33:50;24.60;67.30
11647;DHT22;5880;52.342;9.662;2023-07-24T13:36:15;24.70;67.20
11647;DHT22;5880;52.342;9.662;2023-07-24T13:38:41;24.80;66.70
11647;DHT22;5880;52.342;9.662;2023-07-24T13:41:07;24.80;66.40
11647;DHT22;5880;52.342;9.662;2023-07-24T13:43:34;24.70;66.20
11647;DHT22;5880;52.342;9.662;2023-07-24T13:46:00;24.70;66.50
11647;DHT22;5880;52.342;9.662;2023-07-24T13:48:28;24.70;66.20
11647;DHT22;5880;52.342;9.662;2023-07-24T13:50:53;24.70;65.60
11647;DHT22;5880;52.342;9.662;2023-07-24T13:53:20;24.70;65.20
11647;DHT22;5880;52.342;9.662;2023-07-24T13:55:47;24.60;64.80
11647;DHT22;5880;52.342;9.662;2023-07-24T13:58:13;24.50;64.90
11647;DHT22;5880;52.342;9.662;2023-07-24T14:00:38;24.40;64.60
11647;DHT22;5880;52.342;9.662;2023-07-24T14:03:04;24.30;64.60
11647;DHT22;5880;52.342;9.662;2023-07-24T14:05:30;24.20;64.40
11647;DHT22;5880;52.342;9.662;2023-07-24T14:07:55;24.10;64.50
11647;DHT22;5880;52.342;9.662;2023-07-24T14:10:21;23.90;64.60
11647;DHT22;5880;52.342;9.662;2023-07-24T14:12:47;23.70;64.80
11647;DHT22;5880;52.342;9.662;2023-07-24T14:15:12;23.60;65.10
11647;DHT22;5880;52.342;9.662;2023-07-24T14:17:38;23.40;65.20
11647;DHT22;5880;52.342;9.662;2023-07-24T14:20:05;23.30;65.40
11647;DHT22;5880;52.342;9.662;2023-07-24T14:22:31;23.10;65.60
11647;DHT22;5880;52.342;9.662;2023-07-24T14:24:57;23.00;65.20
11647;DHT22;5880;52.342;9.662;2023-07-24T14:27:22;23.00;65.40
11647;DHT22;5880;52.342;9.662;2023-07-24T14:29:48;22.70;65.50
11647;DHT22;5880;52.342;9.662;2023-07-24T14:32:14;22.60;65.80
11647;DHT22;5880;52.342;9.662;2023-07-24T14:34:41;22.50;66.10
11647;DHT22;5880;52.342;9.662;2023-07-24T14:37:07;22.30;66.30
11647;DHT22;5880;52.342;9.662;2023-07-24T14:39:32;22.30;66.60
11647;DHT22;5880;52.342;9.662;2023-07-24T14:41:58;22.30;67.00
11647;DHT22;5880;52.342;9.662;2023-07-24T14:44:24;22.20;67.10
11647;DHT22;5880;52.342;9.662;2023-07-24T14:46:50;22.10;67.20
11647;DHT22;5880;52.342;9.662;2023-07-24T14:49:16;22.10;67.30
11647;DHT22;5880;52.342;9.662;2023-07-24T14:51:42;22.10;67.30
11647;DHT22;5880;52.342;9.662;2023-07-24T14:54:07;22.00;67.10
11647;DHT22;5880;52.342;9.662;2023-07-24T14:56:33;22.00;67.00
11647;DHT22;5880;52.342;9.662;2023-07-24T14:58:59;21.90;67.20
11647;DHT22;5880;52.342;9.662;2023-07-24T15:01:24;21.90;67.20
11647;DHT22;5880;52.342;9.662;2023-07-24T15:03:53;21.90;67.30
11647;DHT22;5880;52.342;9.662;2023-07-24T15:06:19;21.90;68.20
11647;DHT22;5880;52.342;9.662;2023-07-24T15:08:44;21.90;67.60
11647;DHT22;5880;52.342;9.662;2023-07-24T15:11:10;21.80;68.50
11647;DHT22;5880;52.342;9.662;2023-07-24T15:13:38;21.80;68.00
11647;DHT22;5880;52.342;9.662;2023-07-24T15:16:03;21.80;68.30
11647;DHT22;5880;52.342;9.662;2023-07-24T15:18:30;21.90;68.70
11647;DHT22;5880;52.342;9.662;2023-07-24T15:20:55;21.90;69.00
11647;DHT22;5880;52.342;9.662;2023-07-24T15:23:21;22.00;69.10
11647;DHT22;5880;52.342;9.662;2023-07-24T15:25:47;22.00;69.30
11647;DHT22;5880;52.342;9.662;2023-07-24T15:28:13;22.00;69.50
11647;DHT22;5880;52.342;9.662;2023-07-24T15:30:39;22.10;69.90
11647;DHT22;5880;52.342;9.662;2023-07-24T15:33:04;22.10;70.10
11647;DHT22;5880;52.342;9.662;2023-07-24T15:35:30;22.20;70.40
11647;DHT22;5880;52.342;9.662;2023-07-24T15:37:56;22.30;70.70
11647;DHT22;5880;52.342;9.662;2023-07-24T15:40:21;22.50;71.00
11647;DHT22;5880;52.342;9.662;2023-07-24T15:42:47;22.60;71.20
11647;DHT22;5880;52.342;9.662;2023-07-24T15:45:13;22.60;71.20
11647;DHT22;5880;52.342;9.662;2023-07-24T15:47:38;22.70;71.20